Time;durP1;ratioP1;P1;durP2;ratioP2;P2;SDS_P1;SDS_P2;PMS_P1;PMS_P2;Temp;Humidity;BMP_temperature;BMP_pressure;BME280_temperature;BME280_humidity;BME280_pressure;Samples;Min_cycle;Max_cycle;Signal;HPM_P1;HPM_P2
2022/04/19 04:00:21;;;;;;;5.70;3.73;;;6.20;99.90;;;;;;6024169;23;20396;-76
2022/04/19 04:02:48;;;;;;;3.77;3.30;;;6.20;99.90;;;;;;4966462;28;20472;-79
2022/04/19 04:05:15;;;;;;;4.90;3.70;;;6.10;99.90;;;;;;4968105;28;20970;-77
2022/04/19 04:07:42;;;;;;;4.03;3.53;;;6.10;99.90;;;;;;4968456;28;20459;-78
2022/04/19 04:10:10;;;;;;;4.00;3.53;;;6.10;99.90;;;;;;4969346;28;20449;-77
2022/04/19 04:12:37;;;;;;;5.67;4.13;;;6.10;99.90;;;;;;4949797;29;20468;-77
2022/04/19 04:15:05;;;;;;;6.37;4.10;;;6.00;99.90;;;;;;4950146;29;20461;-77
2022/04/19 04:17:33;;;;;;;6.87;3.77;;;6.00;99.90;;;;;;4949241;29;20497;-77
2022/04/19 04:20:00;;;;;;;7.97;4.63;;;6.00;99.90;;;;;;4949831;29;20811;-76
2022/04/19 04:22:27;;;;;;;6.50;5.47;;;6.00;99.90;;;;;;4948418;28;20482;-79
2022/04/19 04:24:54;;;;;;;8.20;5.40;;;6.00;99.90;;;;;;4950066;29;20496;-77
2022/04/19 04:27:21;;;;;;;7.20;5.63;;;6.00;99.90;;;;;;4949382;29;20472;-78
2022/04/19 04:29:48;;;;;;;9.80;5.73;;;6.00;99.90;;;;;;4949596;29;20457;-78
2022/04/19 04:32:15;;;;;;;7.83;4.80;;;5.90;99.90;;;;;;4948522;28;20485;-80
2022/04/19 04:34:43;;;;;;;6.40;5.17;;;5.90;99.90;;;;;;4949721;29;20442;-79
2022/04/19 04:37:10;;;;;;;5.43;3.90;;;5.90;99.90;;;;;;4948751;29;20509;-79
2022/04/19 04:39:37;;;;;;;5.60;4.70;;;5.90;99.90;;;;;;4949295;29;20464;-78
2022/04/19 04:42:05;;;;;;;5.03;4.13;;;5.90;99.90;;;;;;4949656;29;20473;-80
2022/04/19 04:44:31;;;;;;;6.60;4.43;;;5.90;99.90;;;;;;4949648;29;20462;-78
2022/04/19 04:49:44;;;;;;;5.57;4.10;;;5.80;99.90;;;;;;4947984;29;20429;-78
2022/04/19 04:52:12;;;;;;;6.10;4.60;;;5.80;99.90;;;;;;4948964;29;20489;-78
2022/04/19 04:54:40;;;;;;;9.67;4.00;;;5.80;99.90;;;;;;4949453;29;21239;-79
2022/04/19 04:57:08;;;;;;;6.27;4.10;;;5.70;99.90;;;;;;4948754;29;21035;-79
2022/04/19 04:59:36;;;;;;;5.70;4.10;;;5.70;99.90;;;;;;4949158;29;20889;-78
2022/04/19 05:02:04;;;;;;;4.50;3.67;;;5.80;99.90;;;;;;4948791;29;20485;-80
2022/04/19 05:04:32;;;;;;;5.93;4.00;;;5.80;99.90;;;;;;4949737;29;20950;-80
2022/04/19 05:07:01;;;;;;;5.97;5.03;;;5.70;99.90;;;;;;4949868;29;20461;-80
2022/04/19 05:09:28;;;;;;;4.97;4.40;;;5.70;99.90;;;;;;4949754;29;20488;-79
2022/04/19 05:11:54;;;;;;;6.97;4.03;;;5.80;99.90;;;;;;4949476;28;20477;-80
2022/04/19 05:14:22;;;;;;;4.33;3.70;;;5.80;99.90;;;;;;4948877;29;21183;-79
2022/04/19 05:16:49;;;;;;;7.10;3.70;;;5.80;99.90;;;;;;4948847;29;20548;-80
2022/04/19 05:19:16;;;;;;;8.07;3.90;;;5.80;99.90;;;;;;4952027;29;20471;-80
2022/04/19 05:21:43;;;;;;;7.23;4.43;;;5.80;99.90;;;;;;4952107;28;20516;-80
2022/04/19 05:24:11;;;;;;;5.17;3.83;;;5.90;99.90;;;;;;4951486;29;20467;-80
2022/04/19 05:26:38;;;;;;;5.13;3.93;;;5.90;99.90;;;;;;4948906;29;20465;-79
2022/04/19 05:29:05;;;;;;;5.53;4.03;;;6.00;99.90;;;;;;4948979;29;20456;-79
2022/04/19 05:31:32;;;;;;;4.40;4.10;;;6.00;99.90;;;;;;4948433;29;20818;-79
2022/04/19 05:33:59;;;;;;;8.07;3.97;;;6.00;99.90;;;;;;4947935;29;20462;-79
2022/04/19 05:36:26;;;;;;;6.10;4.13;;;6.10;99.90;;;;;;4947958;29;20459;-79
2022/04/19 05:38:53;;;;;;;8.80;4.10;;;6.10;99.90;;;;;;4949146;29;20497;-79
2022/04/19 05:41:21;;;;;;;8.70;4.27;;;6.10;99.90;;;;;;4948682;29;20593;-79
2022/04/19 05:43:49;;;;;;;5.83;4.10;;;6.10;99.90;;;;;;4948870;29;20465;-79
2022/04/19 05:46:17;;;;;;;5.60;4.30;;;6.00;99.90;;;;;;4947365;28;20465;-78
2022/04/19 05:48:44;;;;;;;5.47;4.50;;;6.00;99.90;;;;;;4950723;29;20541;-79
2022/04/19 05:51:11;;;;;;;4.90;3.63;;;6.00;99.90;;;;;;4952761;28;20477;-78
2022/04/19 05:53:38;;;;;;;6.33;4.07;;;6.10;99.90;;;;;;4952552;29;20504;-78
2022/04/19 05:56:05;;;;;;;8.60;4.30;;;6.10;99.90;;;;;;4952872;28;20463;-79
2022/04/19 05:58:33;;;;;;;9.80;4.20;;;6.20;99.90;;;;;;4950226;29;20489;-79
2022/04/19 06:01:01;;;;;;;5.30;4.30;;;6.30;99.90;;;;;;4950979;28;20480;-80
2022/04/19 06:06:12;;;;;;;6.50;4.00;;;6.30;99.90;;;;;;4950081;29;20544;-79
2022/04/19 06:08:39;;;;;;;4.37;3.90;;;6.30;99.90;;;;;;4950143;29;20498;-78
2022/04/19 06:11:07;;;;;;;8.13;4.30;;;6.40;99.90;;;;;;4955101;29;20579;-81
2022/04/19 06:13:35;;;;;;;5.20;4.10;;;6.40;99.90;;;;;;4958909;29;20465;-81
2022/04/19 06:16:02;;;;;;;5.80;4.00;;;6.50;99.90;;;;;;4956722;29;20467;-81
2022/04/19 06:18:29;;;;;;;7.80;4.37;;;6.60;99.90;;;;;;4954313;29;20503;-82
2022/04/19 06:20:56;;;;;;;4.87;3.87;;;6.60;99.90;;;;;;4953899;29;20673;-82
2022/04/19 06:23:23;;;;;;;4.37;3.63;;;6.70;99.90;;;;;;4955431;29;20545;-82
2022/04/19 06:25:50;;;;;;;5.00;3.60;;;6.70;99.90;;;;;;4956015;29;20465;-83
2022/04/19 06:28:17;;;;;;;5.67;3.57;;;6.80;99.90;;;;;;4955537;29;20460;-83
2022/04/19 06:30:46;;;;;;;3.90;3.00;;;6.90;99.90;;;;;;4955151;28;20539;-83
2022/04/19 06:33:13;;;;;;;3.67;3.27;;;6.90;99.90;;;;;;4956694;29;20462;-84
2022/04/19 06:35:41;;;;;;;5.73;3.70;;;7.10;99.90;;;;;;4955265;29;20549;-82
2022/04/19 06:38:08;;;;;;;3.60;3.20;;;7.20;99.90;;;;;;4955256;29;20489;-85
2022/04/19 06:40:35;;;;;;;5.17;3.97;;;7.20;99.90;;;;;;4955678;29;20489;-82
2022/04/19 06:43:02;;;;;;;3.90;3.40;;;7.20;99.90;;;;;;4955787;29;20521;-83
2022/04/19 06:45:29;;;;;;;7.03;3.93;;;7.30;99.90;;;;;;4955197;29;20471;-83
2022/04/19 06:47:58;;;;;;;5.13;4.07;;;7.30;99.90;;;;;;4954990;29;20514;-83
2022/04/19 06:50:27;;;;;;;6.50;4.33;;;7.30;99.90;;;;;;4955089;29;20457;-82
2022/04/19 06:52:54;;;;;;;7.10;3.70;;;7.40;99.90;;;;;;4954325;29;20884;-81
2022/04/19 06:55:21;;;;;;;4.67;3.13;;;7.50;99.90;;;;;;4955534;29;20521;-82
2022/04/19 06:57:48;;;;;;;3.53;3.20;;;7.60;99.90;;;;;;4954867;28;20982;-84
2022/04/19 07:00:16;;;;;;;5.50;3.30;;;7.60;99.90;;;;;;4955184;28;20556;-82
2022/04/19 07:02:44;;;;;;;3.77;3.37;;;7.70;99.90;;;;;;4955141;29;20462;-83
2022/04/19 07:05:13;;;;;;;5.13;3.27;;;7.80;99.90;;;;;;4955758;29;20980;-82
2022/04/19 07:07:42;;;;;;;4.00;3.10;;;7.90;99.90;;;;;;4954603;29;21037;-83
2022/04/19 07:10:11;;;;;;;3.90;3.00;;;8.00;99.90;;;;;;4956073;29;20992;-83
2022/04/19 07:12:39;;;;;;;4.13;3.27;;;8.10;99.90;;;;;;4952457;29;20474;-84
2022/04/19 07:15:07;;;;;;;8.40;3.63;;;8.20;99.90;;;;;;4955285;29;20914;-83
2022/04/19 07:17:37;;;;;;;4.63;3.40;;;8.30;99.90;;;;;;4951540;29;20504;-82
2022/04/19 07:28:19;;;;;;;7.17;3.17;;;8.80;99.90;;;;;;4963662;29;20526;-81
2022/04/19 07:30:46;;;;;;;4.10;3.00;;;9.00;99.90;;;;;;4962192;29;20469;-83
2022/04/19 07:33:13;;;;;;;6.43;3.30;;;9.00;99.90;;;;;;4959716;29;20458;-83
2022/04/19 07:35:40;;;;;;;5.43;2.70;;;9.10;99.90;;;;;;4955089;29;20859;-82
2022/04/19 07:38:08;;;;;;;4.77;3.33;;;9.30;99.90;;;;;;4954021;28;20515;-82
2022/04/19 07:40:36;;;;;;;4.73;3.33;;;9.40;99.90;;;;;;4955401;29;20566;-83
2022/04/19 07:43:03;;;;;;;4.67;3.57;;;9.50;99.90;;;;;;4955305;29;20465;-83
2022/04/19 07:45:30;;;;;;;5.70;4.30;;;9.70;99.90;;;;;;4951337;29;20457;-69
2022/04/19 07:47:57;;;;;;;4.80;3.83;;;9.80;99.90;;;;;;4947008;29;20942;-69
2022/04/19 07:50:24;;;;;;;8.53;3.83;;;10.00;99.90;;;;;;4947536;29;20457;-69
2022/04/19 07:52:51;;;;;;;4.90;3.90;;;10.10;99.90;;;;;;4947878;29;20449;-69
2022/04/19 07:55:19;;;;;;;7.40;4.70;;;10.20;99.90;;;;;;4946126;29;20539;-69
2022/04/19 07:57:46;;;;;;;6.03;4.00;;;10.30;99.90;;;;;;4947058;29;20552;-69
2022/04/19 08:00:14;;;;;;;5.60;3.63;;;10.50;99.90;;;;;;4948040;29;20465;-69
2022/04/19 08:02:41;;;;;;;5.23;4.10;;;10.60;99.90;;;;;;4948047;29;20453;-69
2022/04/19 08:05:09;;;;;;;4.20;3.80;;;10.80;99.90;;;;;;4948076;29;20861;-69
2022/04/19 08:07:36;;;;;;;5.10;3.70;;;11.00;99.90;;;;;;4947117;29;20497;-69
2022/04/19 08:10:05;;;;;;;3.87;3.00;;;11.20;99.90;;;;;;4948355;28;21301;-81
2022/04/19 08:12:34;;;;;;;7.80;3.80;;;11.20;99.90;;;;;;4955851;29;20548;-81
2022/04/19 08:15:00;;;;;;;5.03;3.67;;;11.30;99.90;;;;;;4957623;29;20461;-81
2022/04/19 08:17:27;;;;;;;5.30;3.67;;;11.50;99.90;;;;;;4956036;29;20484;-81
2022/04/19 08:19:56;;;;;;;4.50;3.03;;;11.60;99.90;;;;;;4956456;29;20534;-83
2022/04/19 08:22:24;;;;;;;4.07;3.67;;;11.70;99.90;;;;;;4957490;29;20528;-83
2022/04/19 08:24:50;;;;;;;6.90;3.90;;;11.90;99.90;;;;;;4954374;29;20988;-82
2022/04/19 08:27:18;;;;;;;4.67;3.50;;;12.00;99.90;;;;;;4956189;29;21304;-82
2022/04/19 08:29:47;;;;;;;5.93;3.45;;;12.10;99.90;;;;;;4962606;29;20450;-82
2022/04/19 08:32:14;;;;;;;5.67;3.83;;;12.50;99.90;;;;;;4962786;29;20308;-82
2022/04/19 08:34:42;;;;;;;5.57;3.60;;;12.50;99.90;;;;;;4962670;29;20536;-83
2022/04/19 08:37:10;;;;;;;5.33;3.90;;;12.70;99.90;;;;;;4962348;29;20445;-83
2022/04/19 08:39:37;;;;;;;4.80;3.10;;;12.70;99.90;;;;;;4962264;29;20536;-83
2022/04/19 08:42:04;;;;;;;4.63;3.10;;;12.90;99.90;;;;;;4956450;29;20473;-81
2022/04/19 08:44:31;;;;;;;4.20;3.10;;;12.90;99.90;;;;;;4956766;29;20508;-85
2022/04/19 08:46:59;;;;;;;6.53;4.00;;;13.00;99.90;;;;;;4958331;29;20493;-87
2022/04/19 08:49:26;;;;;;;6.13;3.60;;;13.10;99.90;;;;;;4957714;29;20461;-84
2022/04/19 08:51:53;;;;;;;6.80;3.60;;;13.20;99.90;;;;;;4955631;29;20573;-82
2022/04/19 08:59:49;;;;;;;6.20;3.63;;;13.50;99.90;;;;;;4959300;29;20508;-83
2022/04/19 09:02:26;;;;;;;3.90;3.30;;;13.80;99.90;;;;;;4957406;29;20486;-83
2022/04/19 09:04:53;;;;;;;7.90;3.57;;;13.90;99.90;;;;;;4957792;29;20460;-83
2022/04/19 09:07:35;;;;;;;7.00;3.53;;;14.00;99.90;;;;;;4957539;29;20497;-82
2022/04/19 09:10:03;;;;;;;4.83;3.30;;;14.00;99.90;;;;;;4958269;29;20525;-82
2022/04/19 09:12:30;;;;;;;4.67;3.00;;;14.10;99.90;;;;;;4958256;29;20949;-82
2022/04/19 09:14:59;;;;;;;4.43;3.03;;;14.20;99.90;;;;;;4957841;29;20508;-82
2022/04/19 09:17:33;;;;;;;4.00;3.03;;;14.40;99.90;;;;;;4956704;29;21017;-82
2022/04/19 09:20:15;;;;;;;4.33;3.27;;;14.70;99.90;;;;;;4957086;29;20495;-82
2022/04/19 09:22:43;;;;;;;4.53;3.10;;;14.90;99.90;;;;;;4959034;28;20459;-83
2022/04/19 09:25:18;;;;;;;3.47;3.10;;;14.90;99.90;;;;;;4962109;29;20512;-82
2022/04/19 09:27:46;;;;;;;7.80;3.47;;;14.90;99.30;;;;;;4961357;29;20467;-83
2022/04/19 09:30:20;;;;;;;4.77;3.57;;;14.90;99.90;;;;;;4962728;29;20504;-82
2022/04/19 09:33:09;;;;;;;3.97;3.20;;;15.00;99.80;;;;;;4963201;29;20465;-82
2022/04/19 09:35:38;;;;;;;4.27;3.17;;;15.10;99.90;;;;;;4961972;29;20500;-82
2022/04/19 09:38:06;;;;;;;9.70;3.27;;;15.20;99.20;;;;;;4962698;29;20485;-82
2022/04/19 09:40:35;;;;;;;4.37;3.40;;;15.30;99.40;;;;;;4963483;29;20457;-82
2022/04/19 09:43:10;;;;;;;6.43;3.93;;;15.30;99.60;;;;;;4963491;29;20466;-82
2022/04/19 09:45:52;;;;;;;6.70;4.37;;;15.40;99.00;;;;;;4960755;29;21455;-82
2022/04/19 09:48:22;;;;;;;10.07;4.70;;;15.40;99.50;;;;;;4962967;29;20509;-82
2022/04/19 09:50:51;;;;;;;9.37;4.30;;;15.50;99.90;;;;;;4964933;29;20478;-82
2022/04/19 09:53:19;;;;;;;11.13;4.60;;;15.60;99.80;;;;;;4968207;29;20532;-82
2022/04/19 09:55:50;;;;;;;9.13;5.30;;;15.70;99.90;;;;;;4969482;29;20463;-82
2022/04/19 09:58:17;;;;;;;8.23;4.47;;;15.90;99.50;;;;;;4964902;29;20553;-82
2022/04/19 10:00:45;;;;;;;11.50;5.63;;;15.90;99.00;;;;;;4965047;29;20551;-81
2022/04/19 10:08:53;;;;;;;6.83;4.43;;;16.20;97.40;;;;;;4936807;29;20951;-82
2022/04/19 10:11:20;;;;;;;4.90;3.67;;;16.30;98.10;;;;;;4955707;29;20691;-81
2022/04/19 10:13:47;;;;;;;7.87;4.60;;;16.50;97.00;;;;;;4955598;29;20475;-82
2022/04/19 10:16:15;;;;;;;6.27;4.57;;;16.40;96.00;;;;;;4955477;29;20468;-82
2022/04/19 10:18:44;;;;;;;8.20;5.20;;;16.50;97.00;;;;;;4954976;29;20535;-82
2022/04/19 10:21:17;;;;;;;6.80;4.83;;;16.60;95.70;;;;;;4952555;29;20499;-67
2022/04/19 10:23:44;;;;;;;9.30;5.00;;;16.60;95.00;;;;;;4949868;29;20475;-68
2022/04/19 10:26:19;;;;;;;9.90;5.43;;;16.60;94.10;;;;;;4949712;29;20497;-68
2022/04/19 10:28:48;;;;;;;7.70;5.17;;;16.50;93.70;;;;;;4949687;29;20461;-68
2022/04/19 10:31:24;;;;;;;7.30;4.77;;;16.50;93.40;;;;;;4949523;29;20478;-68
2022/04/19 10:33:53;;;;;;;6.97;4.40;;;16.50;93.40;;;;;;4948996;28;20449;-78
2022/04/19 10:36:23;;;;;;;9.27;5.23;;;16.50;92.70;;;;;;4957621;29;20464;-81
2022/04/19 10:39:25;;;;;;;11.60;5.50;;;16.50;94.20;;;;;;4954199;29;20509;-81
2022/04/19 10:41:57;;;;;;;8.70;5.07;;;16.50;93.80;;;;;;4954516;29;20469;-81
2022/04/19 10:44:31;;;;;;;8.17;5.53;;;16.70;94.20;;;;;;4953029;29;20580;-79
2022/04/19 10:47:07;;;;;;;6.70;4.77;;;16.80;92.50;;;;;;4950169;29;20472;-80
2022/04/19 10:49:51;;;;;;;8.70;5.80;;;16.90;93.50;;;;;;4952614;29;20484;-80
2022/04/19 10:52:47;;;;;;;5.53;4.13;;;17.00;92.80;;;;;;4951566;29;20517;-81
2022/04/19 10:55:23;;;;;;;5.90;4.40;;;17.20;93.70;;;;;;4953306;29;20442;-80
2022/04/19 11:00:55;;;;;;;7.17;4.93;;;17.60;93.20;;;;;;4911668;29;21016;-81
2022/04/19 11:03:41;;;;;;;7.93;4.57;;;17.80;92.20;;;;;;4913212;29;20481;-81
2022/04/19 11:06:36;;;;;;;6.10;3.70;;;17.80;90.20;;;;;;4937299;29;20911;-81
2022/04/19 11:09:19;;;;;;;6.43;4.60;;;17.90;91.20;;;;;;4953219;29;20457;-81
2022/04/19 11:11:51;;;;;;;5.83;4.80;;;17.90;90.10;;;;;;4954198;29;20485;-81
2022/04/19 11:14:23;;;;;;;9.40;4.70;;;17.90;90.30;;;;;;4953755;29;20489;-81
2022/04/19 11:16:52;;;;;;;7.33;5.00;;;18.10;91.10;;;;;;4953757;29;20449;-81
2022/04/19 11:19:21;;;;;;;6.50;3.93;;;18.20;90.60;;;;;;4952781;29;20596;-81
2022/04/19 11:21:54;;;;;;;7.47;4.10;;;18.30;90.30;;;;;;4952252;29;20481;-81
2022/04/19 11:24:58;;;;;;;3.70;3.30;;;18.40;87.60;;;;;;4953520;29;20493;-81
2022/04/19 11:28:08;;;;;;;4.20;3.77;;;18.40;89.00;;;;;;4953706;29;21180;-81
2022/04/19 11:30:36;;;;;;;5.40;4.00;;;18.60;90.60;;;;;;4954644;29;20477;-80
2022/04/19 11:33:05;;;;;;;6.00;4.20;;;18.80;90.20;;;;;;4954812;29;20458;-81
2022/04/19 11:35:32;;;;;;;5.60;4.10;;;18.80;89.00;;;;;;4954070;29;20464;-81
2022/04/19 11:38:04;;;;;;;5.70;3.97;;;18.90;86.50;;;;;;4953715;29;20520;-81
2022/04/19 11:48:50;;;;;;;5.73;3.70;;;19.20;88.90;;;;;;4954060;29;20445;-81
2022/04/19 11:51:18;;;;;;;4.83;3.60;;;19.40;88.60;;;;;;4954181;29;20484;-81
2022/04/19 11:53:45;;;;;;;8.63;4.30;;;19.50;90.10;;;;;;4954279;29;20540;-81
2022/04/19 11:56:12;;;;;;;5.37;4.23;;;19.40;83.60;;;;;;4954002;29;20793;-81
2022/04/19 11:58:43;;;;;;;4.67;3.50;;;19.40;88.40;;;;;;4952985;29;20450;-81
2022/04/19 12:01:11;;;;;;;5.83;3.80;;;19.50;88.10;;;;;;4952443;29;20594;-81
2022/04/19 12:03:40;;;;;;;3.20;2.90;;;19.60;85.40;;;;;;4952937;29;20461;-81
2022/04/19 12:06:08;;;;;;;3.33;2.87;;;19.70;86.10;;;;;;4952695;29;20453;-82
2022/04/19 12:08:38;;;;;;;5.77;3.50;;;19.70;84.90;;;;;;4952228;29;20485;-83
2022/04/19 12:11:06;;;;;;;3.80;3.30;;;19.70;83.60;;;;;;4951848;29;20474;-82
2022/04/19 12:13:33;;;;;;;3.90;3.33;;;19.80;84.10;;;;;;4953153;29;20464;-82
2022/04/19 12:16:03;;;;;;;4.07;3.67;;;19.90;84.80;;;;;;4953871;29;20520;-82
2022/04/19 12:18:32;;;;;;;4.23;3.40;;;20.00;85.20;;;;;;4953070;29;20450;-82
2022/04/19 12:21:00;;;;;;;6.00;4.00;;;20.00;79.80;;;;;;4952378;29;20528;-81
2022/04/19 12:23:27;;;;;;;3.07;2.77;;;20.00;82.20;;;;;;4952318;29;20465;-81
2022/04/19 12:26:01;;;;;;;5.33;3.57;;;20.00;83.20;;;;;;4952684;29;21261;-81
2022/04/19 12:28:52;;;;;;;4.87;3.20;;;20.00;80.60;;;;;;4951951;29;20476;-81
2022/04/19 12:31:34;;;;;;;3.80;3.40;;;20.10;80.70;;;;;;4932579;29;20580;-82
2022/04/19 12:34:01;;;;;;;6.53;3.30;;;20.10;78.30;;;;;;4951879;29;20520;-81
2022/04/19 12:36:28;;;;;;;3.80;3.03;;;20.00;81.70;;;;;;4951393;29;20457;-81
2022/04/19 12:39:00;;;;;;;5.07;3.70;;;20.10;83.10;;;;;;4953274;29;20540;-81
2022/04/19 12:41:38;;;;;;;4.00;2.73;;;20.20;80.10;;;;;;4952521;29;20556;-81
2022/04/19 12:44:07;;;;;;;5.60;2.90;;;20.30;80.70;;;;;;4952211;29;20441;-81
2022/04/19 12:46:39;;;;;;;3.30;2.83;;;20.30;78.90;;;;;;4951246;29;20944;-81
2022/04/19 12:49:06;;;;;;;4.50;3.07;;;20.30;78.40;;;;;;4951985;29;20521;-81
2022/04/19 12:51:35;;;;;;;3.80;3.03;;;20.40;80.20;;;;;;4952643;29;20473;-81
2022/04/19 12:54:06;;;;;;;3.27;2.87;;;20.50;80.40;;;;;;4952260;29;20508;-81
2022/04/19 12:56:39;;;;;;;4.17;3.40;;;20.40;74.20;;;;;;4953496;28;20457;-81
2022/04/19 12:59:06;;;;;;;4.00;2.80;;;20.50;75.90;;;;;;4955731;29;20549;-81
2022/04/19 13:01:34;;;;;;;5.60;2.93;;;20.50;77.60;;;;;;4955511;29;20576;-81
2022/04/19 13:04:01;;;;;;;5.37;2.63;;;20.50;74.50;;;;;;4955769;29;20465;-82
2022/04/19 13:14:42;;;;;;;5.47;3.20;;;20.70;77.10;;;;;;4956984;29;20426;-81
2022/04/19 13:17:12;;;;;;;4.43;3.13;;;20.60;74.10;;;;;;4955312;29;20896;-81
2022/04/19 13:19:40;;;;;;;3.70;2.70;;;20.60;74.70;;;;;;4957066;29;20496;-81
2022/04/19 13:22:06;;;;;;;3.70;2.10;;;20.70;75.00;;;;;;4957105;29;20513;-81
2022/04/19 13:24:33;;;;;;;5.30;2.90;;;20.80;75.70;;;;;;4955826;29;20474;-81
2022/04/19 13:27:00;;;;;;;5.30;3.10;;;20.90;75.50;;;;;;4955302;29;20493;-81
2022/04/19 13:29:27;;;;;;;3.20;2.90;;;20.90;75.00;;;;;;4956120;29;20465;-81
2022/04/19 13:31:54;;;;;;;3.63;2.80;;;20.90;73.40;;;;;;4955982;29;20473;-81
2022/04/19 13:34:23;;;;;;;3.17;2.87;;;21.00;75.20;;;;;;4955751;29;20532;-81
2022/04/19 13:36:51;;;;;;;3.37;2.80;;;21.10;74.90;;;;;;4954662;29;20465;-81
2022/04/19 13:39:17;;;;;;;4.90;3.10;;;21.20;74.50;;;;;;4954307;29;20509;-82
2022/04/19 13:41:44;;;;;;;3.63;3.00;;;21.20;77.20;;;;;;4953787;29;20505;-83
2022/04/19 13:44:12;;;;;;;3.90;2.50;;;21.30;75.20;;;;;;4954425;29;20462;-83
2022/04/19 13:46:39;;;;;;;3.10;2.40;;;21.30;74.20;;;;;;4952694;29;20465;-83
2022/04/19 13:49:06;;;;;;;3.33;2.53;;;21.40;75.20;;;;;;4953725;29;20453;-82
2022/04/19 13:51:35;;;;;;;3.17;2.33;;;21.50;73.30;;;;;;4953514;29;20500;-83
2022/04/19 13:54:03;;;;;;;3.43;2.63;;;21.60;74.50;;;;;;4953566;29;21017;-83
2022/04/19 13:56:30;;;;;;;3.10;2.70;;;21.60;73.30;;;;;;4953298;29;20454;-82
2022/04/19 13:58:57;;;;;;;4.50;3.00;;;21.60;74.40;;;;;;4953599;29;20489;-83
2022/04/19 14:01:25;;;;;;;8.30;2.70;;;21.60;73.10;;;;;;4953439;29;20501;-83
2022/04/19 14:03:52;;;;;;;3.87;2.60;;;21.60;74.50;;;;;;4953833;29;20464;-82
2022/04/19 14:06:20;;;;;;;3.53;2.80;;;21.60;75.80;;;;;;4953632;29;20457;-81
2022/04/19 14:08:48;;;;;;;3.97;2.70;;;21.70;75.80;;;;;;4954089;28;20903;-81
2022/04/19 14:11:15;;;;;;;3.87;3.47;;;21.80;74.80;;;;;;4955529;29;20494;-82
2022/04/19 14:13:42;;;;;;;4.20;2.57;;;21.80;74.10;;;;;;4953984;29;20557;-80
2022/04/19 14:16:10;;;;;;;3.27;2.40;;;21.70;73.90;;;;;;4953964;29;20461;-81
2022/04/19 14:18:37;;;;;;;3.90;2.90;;;21.70;72.10;;;;;;4952737;29;20458;-82
2022/04/19 14:21:04;;;;;;;3.70;2.53;;;21.60;71.40;;;;;;4954098;29;20939;-83
2022/04/19 14:23:32;;;;;;;3.00;2.43;;;21.60;73.10;;;;;;4951578;29;20472;-69
2022/04/19 14:26:00;;;;;;;3.20;2.43;;;21.70;71.80;;;;;;4949944;29;20536;-69
2022/04/19 14:33:55;;;;;;;4.37;3.20;;;21.80;74.50;;;;;;4949212;29;20580;-70
2022/04/19 14:36:22;;;;;;;6.83;2.90;;;21.80;75.10;;;;;;4949045;29;20485;-75
2022/04/19 14:38:50;;;;;;;5.10;2.73;;;21.90;74.70;;;;;;4954104;29;20536;-84
2022/04/19 14:41:19;;;;;;;3.70;2.20;;;22.00;74.30;;;;;;4954306;29;20505;-81
2022/04/19 14:43:46;;;;;;;3.70;2.77;;;22.10;73.90;;;;;;4953981;29;20461;-83
2022/04/19 14:46:13;;;;;;;4.33;2.53;;;22.20;75.20;;;;;;4952298;29;20573;-82
2022/04/19 14:48:41;;;;;;;3.03;2.37;;;22.40;74.30;;;;;;4953185;29;20536;-82
2022/04/19 14:53:53;;;;;;;2.67;2.10;;;22.50;73.60;;;;;;4953313;29;20466;-82
2022/04/19 14:56:21;;;;;;;3.17;2.43;;;22.50;72.50;;;;;;4952260;29;21037;-82
2022/04/19 14:58:49;;;;;;;2.73;2.13;;;22.70;73.00;;;;;;4953399;29;20833;-82
2022/04/19 15:01:16;;;;;;;2.97;2.23;;;22.80;71.50;;;;;;4952764;29;20592;-83
2022/04/19 15:03:43;;;;;;;4.93;2.67;;;22.80;72.00;;;;;;4953362;29;20472;-82
2022/04/19 15:06:10;;;;;;;3.03;1.90;;;22.90;71.90;;;;;;4953587;29;20989;-83
2022/04/19 15:08:37;;;;;;;2.30;2.10;;;23.00;70.70;;;;;;4953181;29;20537;-82
2022/04/19 15:11:04;;;;;;;2.00;1.80;;;23.10;67.90;;;;;;4953270;29;20545;-81
2022/04/19 15:13:32;;;;;;;2.40;2.00;;;23.10;68.50;;;;;;4952113;29;20453;-82
2022/04/19 15:15:59;;;;;;;2.40;2.20;;;23.10;70.20;;;;;;4952823;29;20488;-82
2022/04/19 15:18:26;;;;;;;2.20;1.90;;;23.20;68.80;;;;;;4952239;29;20457;-82
2022/04/19 15:20:53;;;;;;;2.97;2.43;;;23.30;68.90;;;;;;4952334;29;20501;-80
2022/04/19 15:23:20;;;;;;;3.00;2.10;;;23.30;67.10;;;;;;4952389;28;20654;-81
2022/04/19 15:25:47;;;;;;;3.07;2.10;;;23.40;68.30;;;;;;4961549;28;20964;-82
2022/04/19 15:28:14;;;;;;;2.43;1.97;;;23.50;67.60;;;;;;4971120;28;20464;-83
2022/04/19 15:30:42;;;;;;;2.63;2.03;;;23.60;68.60;;;;;;4953663;28;20509;-82
2022/04/19 15:33:09;;;;;;;3.57;2.20;;;23.70;69.00;;;;;;4933370;29;21119;-84
2022/04/19 15:35:36;;;;;;;2.23;1.97;;;23.70;66.00;;;;;;4932998;29;20894;-83
2022/04/19 15:38:03;;;;;;;2.40;1.93;;;23.80;68.80;;;;;;4931481;29;20497;-84
2022/04/19 15:40:30;;;;;;;3.37;2.30;;;23.90;67.00;;;;;;4932730;29;21165;-84
2022/04/19 15:42:57;;;;;;;2.57;2.00;;;23.90;66.40;;;;;;4932424;29;20446;-84
2022/04/19 15:45:25;;;;;;;4.90;1.80;;;24.10;67.30;;;;;;4931932;29;20504;-83
2022/04/19 15:47:53;;;;;;;1.97;1.80;;;24.20;66.40;;;;;;4933128;29;20498;-84
2022/04/19 15:50:20;;;;;;;4.23;2.37;;;24.20;65.30;;;;;;4932297;29;20463;-83
2022/04/19 15:52:47;;;;;;;2.57;2.03;;;24.20;63.50;;;;;;4968795;28;20564;-81
2022/04/19 15:55:14;;;;;;;4.37;2.33;;;24.20;63.90;;;24.04;nan;97496.97;4972694;28;20547;-81
2022/04/19 15:57:41;;;;;;;2.50;1.80;;;24.20;64.20;;;;;;4972174;28;20568;-80
2022/04/19 16:00:08;;;;;;;2.83;2.20;;;24.20;64.70;;;;;;4971094;28;21021;-82
2022/04/19 16:02:35;;;;;;;4.13;1.93;;;24.20;62.40;;;;;;4971094;28;20524;-81
2022/04/19 16:05:05;;;;;;;4.77;1.70;;;24.20;63.90;;;;;;4971964;28;20452;-82
2022/04/19 16:07:32;;;;;;;2.90;1.90;;;24.30;65.40;;;;;;4973498;28;20456;-82
2022/04/19 16:09:58;;;;;;;3.17;1.97;;;24.30;61.90;;;;;;4973819;28;21033;-81
2022/04/19 16:12:25;;;;;;;2.77;2.00;;;24.20;62.30;;;;;;4972394;28;20476;-82
2022/04/19 16:14:52;;;;;;;2.77;1.97;;;24.00;62.20;;;;;;4971664;28;20460;-81
2022/04/19 16:25:35;;;;;;;2.43;2.20;;;23.70;64.10;;;;;;4974530;28;20471;-82
2022/04/19 16:28:05;;;;;;;2.00;1.70;;;23.60;62.60;;;;;;4977356;28;20440;-82
2022/04/19 16:30:32;;;;;;;1.50;1.40;;;23.50;63.40;;;;;;4985646;28;20448;-81
2022/04/19 16:33:00;;;;;;;2.70;1.93;;;23.40;63.70;;;;;;4984729;28;20461;-81
2022/04/19 16:35:29;;;;;;;2.33;1.70;;;23.40;63.90;;;;;;4983015;28;20469;-81
2022/04/19 16:37:56;;;;;;;2.60;1.50;;;23.20;61.90;;;;;;4977941;28;20465;-82
2022/04/19 16:40:23;;;;;;;2.63;1.97;;;23.00;62.50;;;;;;4977648;28;20483;-81
2022/04/19 16:42:54;;;;;;;2.27;1.90;;;22.90;64.90;;;;;;4973168;28;20488;-82
2022/04/19 16:45:26;;;;;;;2.60;1.40;;;22.70;64.70;;;;;;4973621;28;20768;-82
2022/04/19 16:47:53;;;;;;;3.83;1.53;;;22.60;65.70;;;;;;4972250;28;20463;-82
2022/04/19 16:50:20;;;;;;;2.67;2.00;;;22.50;64.70;;;;;;4971895;28;20547;-82
2022/04/19 16:52:49;;;;;;;2.97;1.50;;;22.40;63.70;;;;;;4972627;28;20484;-82
2022/04/19 16:55:16;;;;;;;3.10;1.77;;;22.30;64.60;;;;;;4971970;28;20835;-82
2022/04/19 16:57:42;;;;;;;2.67;1.80;;;22.20;64.50;;;;;;4971695;28;20902;-81
2022/04/19 17:00:11;;;;;;;2.20;1.60;;;22.10;65.20;;;;;;4972749;28;21190;-81
2022/04/19 17:02:38;;;;;;;2.80;1.60;;;21.90;64.70;;;;;;4977652;28;21056;-82
2022/04/19 17:05:07;;;;;;;3.20;1.50;;;21.80;68.20;;;;;;4982820;28;20463;-82
2022/04/19 17:07:34;;;;;;;1.87;1.20;;;21.70;68.30;;;;;;4983837;28;20456;-83
2022/04/19 17:10:03;;;;;;;2.00;1.60;;;21.50;68.00;;;;;;4977404;28;20461;-83
2022/04/19 17:12:30;;;;;;;1.83;1.33;;;21.50;67.00;;;;;;4971193;28;20465;-83
2022/04/19 17:14:57;;;;;;;1.90;1.40;;;21.30;67.20;;;;;;4972162;28;20483;-82
2022/04/19 17:17:24;;;;;;;2.40;1.97;;;21.20;66.40;;;;;;4970708;28;20458;-83
2022/04/19 17:19:51;;;;;;;3.20;1.77;;;21.20;68.50;;;;;;4972248;28;21011;-83
2022/04/19 17:22:19;;;;;;;2.23;1.70;;;21.10;68.60;;;;;;4972067;28;20514;-82
2022/04/19 17:24:46;;;;;;;4.00;1.80;;;21.00;68.80;;;;;;4971673;28;20468;-82
2022/04/19 17:27:15;;;;;;;2.43;1.60;;;21.00;67.50;;;;;;4971373;28;20879;-82
2022/04/19 17:29:42;;;;;;;2.33;2.10;;;20.80;67.80;;;;;;4971065;28;20468;-80
2022/04/19 17:32:10;;;;;;;2.20;1.70;;;20.70;68.90;;;;;;4969240;28;20471;-79
2022/04/19 17:34:37;;;;;;;2.97;1.77;;;20.60;69.10;;;;;;4969334;28;20465;-81
2022/04/19 17:37:05;;;;;;;3.43;2.00;;;20.60;70.20;;;;;;4968862;28;20527;-80
2022/04/19 17:39:32;;;;;;;3.93;2.20;;;20.40;70.60;;;;;;4969882;28;20464;-81
2022/04/19 17:42:01;;;;;;;3.27;1.70;;;20.40;70.50;;;;;;4969450;28;20484;-80
2022/04/19 17:44:30;;;;;;;3.00;2.50;;;20.30;71.40;;;;;;4973761;28;21149;-79
2022/04/19 17:46:57;;;;;;;4.27;2.23;;;20.30;71.80;;;;;;4977215;28;20537;-79
2022/04/19 17:49:24;;;;;;;2.23;2.03;;;20.10;72.30;;;;;;4966400;28;20594;-81
2022/04/19 17:57:19;;;;;;;4.57;2.10;;;19.80;73.70;;;;;;4952541;29;20430;-78
2022/04/19 17:59:49;;;;;;;4.00;2.33;;;19.60;73.20;;;;;;4952832;28;20484;-79
2022/04/19 18:02:16;;;;;;;3.50;2.27;;;19.50;72.80;;;;;;4953214;28;20509;-79